Time;durP1;ratioP1;P1;durP2;ratioP2;P2;SDS_P1;SDS_P2;PMS_P1;PMS_P2;Temp;Humidity;BMP_temperature;BMP_pressure;BME280_temperature;BME280_humidity;BME280_pressure;Samples;Min_cycle;Max_cycle;Signal;HPM_P1;HPM_P2
2023/12/09 00:00:39;;;;;;;102.45;31.80;;;;;;;;;;5091872;28;20047;-67
2023/12/09 00:03:05;;;;;;;102.82;31.45;;;;;;;;;;5090237;28;20433;-67
2023/12/09 00:05:31;;;;;;;96.80;30.80;;;;;;;;;;5091653;28;20047;-67
2023/12/09 00:07:57;;;;;;;95.18;31.13;;;;;;;;;;5090247;28;20119;-67
2023/12/09 00:10:23;;;;;;;101.70;30.80;;;;;;;;;;5094884;28;20092;-67
2023/12/09 00:12:49;;;;;;;91.93;31.15;;;;;;;;;;5094438;28;20081;-67
2023/12/09 00:15:15;;;;;;;92.00;29.55;;;;;;;;;;5095341;28;20047;-67
2023/12/09 00:17:41;;;;;;;86.05;29.52;;;;;;;;;;5094791;28;20126;-67
2023/12/09 00:20:08;;;;;;;82.82;29.52;;;;;;;;;;5075193;28;20066;-67
2023/12/09 00:22:34;;;;;;;93.10;31.00;;;;;;;;;;5075229;28;20550;-67
2023/12/09 00:25:00;;;;;;;85.03;29.10;;;;;;;;;;5075256;28;20380;-67
2023/12/09 00:27:26;;;;;;;80.18;29.10;;;;;;;;;;5094797;28;20036;-67
2023/12/09 00:29:52;;;;;;;96.00;30.90;;;;;;;;;;5095114;28;20549;-67
2023/12/09 00:32:18;;;;;;;91.30;29.42;;;;;;;;;;5095016;28;20035;-67
2023/12/09 00:34:44;;;;;;;80.53;27.73;;;;;;;;;;5094889;28;20046;-68
2023/12/09 00:37:11;;;;;;;81.90;27.55;;;;;;;;;;5095292;28;20467;-68
2023/12/09 00:39:37;;;;;;;76.05;27.90;;;;;;;;;;5093364;28;20051;-68
2023/12/09 00:42:03;;;;;;;87.85;28.67;;;;;;;;;;5095028;28;20519;-68
2023/12/09 00:44:29;;;;;;;80.68;27.77;;;;;;;;;;5093359;28;20123;-68
2023/12/09 00:46:55;;;;;;;82.05;29.35;;;;;;;;;;5094592;28;20043;-68
2023/12/09 00:49:21;;;;;;;84.28;28.67;;;;;;;;;;5093758;28;20032;-68
2023/12/09 00:51:47;;;;;;;89.47;29.42;;;;;;;;;;5094693;28;20040;-68
2023/12/09 00:54:13;;;;;;;84.13;27.63;;;;;;;;;;5094161;28;20040;-67
2023/12/09 00:56:39;;;;;;;80.07;27.63;;;;;;;;;;5094517;28;20064;-67
2023/12/09 00:59:05;;;;;;;81.65;27.73;;;;;;;;;;5094584;28;20161;-67
2023/12/09 01:01:33;;;;;;;80.82;27.88;;;;;;;;;;5092635;28;20149;-67
2023/12/09 01:04:00;;;;;;;75.85;26.45;;;;;;;;;;5094334;28;20044;-67
2023/12/09 01:06:27;;;;;;;74.65;27.00;;;;;;;;;;5094510;28;20090;-67
2023/12/09 01:08:53;;;;;;;90.50;27.42;;;;;;;;;;5092434;28;20044;-67
2023/12/09 01:11:19;;;;;;;80.78;27.52;;;;;;;;;;5094131;28;20039;-67
2023/12/09 01:13:45;;;;;;;84.57;26.38;;;;;;;;;;5093214;28;20398;-67
2023/12/09 01:16:11;;;;;;;87.47;27.40;;;;;;;;;;5093498;28;20043;-67
2023/12/09 01:18:37;;;;;;;70.40;26.35;;;;;;;;;;5084538;28;20052;-67
2023/12/09 01:21:04;;;;;;;74.60;27.15;;;;;;;;;;5073317;28;20087;-67
2023/12/09 01:23:30;;;;;;;87.13;27.42;;;;;;;;;;5072166;28;20079;-67
2023/12/09 01:25:56;;;;;;;78.25;26.20;;;;;;;;;;5082727;28;20036;-67
2023/12/09 01:28:22;;;;;;;77.90;25.75;;;;;;;;;;5094137;28;20047;-67
2023/12/09 01:30:48;;;;;;;76.55;26.23;;;;;;;;;;5092101;28;20043;-67
2023/12/09 01:33:14;;;;;;;76.70;27.10;;;;;;;;;;5092718;28;20055;-67
2023/12/09 01:35:41;;;;;;;73.65;25.40;;;;;;;;;;5094068;28;20032;-67
2023/12/09 01:38:07;;;;;;;79.53;26.27;;;;;;;;;;5093428;28;20044;-67
2023/12/09 01:40:33;;;;;;;73.75;25.20;;;;;;;;;;5093642;28;20059;-67
2023/12/09 01:42:59;;;;;;;82.45;25.83;;;;;;;;;;5092209;28;20040;-67
2023/12/09 01:45:25;;;;;;;82.05;25.63;;;;;;;;;;5093443;28;20051;-67
2023/12/09 01:47:51;;;;;;;79.25;26.90;;;;;;;;;;5093193;28;20079;-67
2023/12/09 01:50:18;;;;;;;78.93;25.67;;;;;;;;;;5093823;28;20036;-67
2023/12/09 01:52:44;;;;;;;69.35;25.63;;;;;;;;;;5092230;28;20039;-67
2023/12/09 01:55:11;;;;;;;71.43;25.70;;;;;;;;;;5093640;28;20044;-67
2023/12/09 01:57:37;;;;;;;75.20;25.42;;;;;;;;;;5093318;28;20566;-67
2023/12/09 02:00:04;;;;;;;65.00;24.67;;;;;;;;;;5093674;28;20152;-67
2023/12/09 02:02:30;;;;;;;72.90;25.15;;;;;;;;;;5092965;28;20040;-67
2023/12/09 02:04:57;;;;;;;68.80;24.42;;;;;;;;;;5093398;28;20040;-67
2023/12/09 02:07:23;;;;;;;71.78;25.27;;;;;;;;;;5092304;28;20498;-67
2023/12/09 02:09:49;;;;;;;77.35;25.45;;;;;;;;;;5092876;28;20042;-67
2023/12/09 02:12:18;;;;;;;68.60;24.50;;;;;;;;;;5092235;28;20035;-67
2023/12/09 02:14:54;;;;;;;61.03;24.42;;;;;;;;;;5093531;28;20086;-67
2023/12/09 02:17:30;;;;;;;69.65;23.90;;;;;;;;;;5091243;28;20375;-67
2023/12/09 02:19:56;;;;;;;70.03;23.83;;;;;;;;;;5072896;28;20533;-67
2023/12/09 02:22:22;;;;;;;71.47;23.27;;;;;;;;;;5072646;28;20072;-67
2023/12/09 02:24:48;;;;;;;60.60;24.00;;;;;;;;;;5072371;28;20497;-67
2023/12/09 02:27:15;;;;;;;75.13;24.13;;;;;;;;;;5092097;28;20452;-67
2023/12/09 02:29:55;;;;;;;71.28;23.85;;;;;;;;;;5093231;28;20040;-67
2023/12/09 02:32:23;;;;;;;67.53;24.05;;;;;;;;;;5091077;28;20131;-67
2023/12/09 02:34:51;;;;;;;68.45;22.73;;;;;;;;;;5091563;28;20043;-67
2023/12/09 02:37:19;;;;;;;67.97;23.77;;;;;;;;;;5092758;28;20050;-67
2023/12/09 02:39:46;;;;;;;68.72;22.92;;;;;;;;;;5092582;28;20075;-67
2023/12/09 02:42:12;;;;;;;62.83;23.98;;;;;;;;;;5092769;28;20057;-67
2023/12/09 02:44:41;;;;;;;67.68;22.58;;;;;;;;;;5092570;28;20758;-67
2023/12/09 02:47:07;;;;;;;69.68;22.55;;;;;;;;;;5092706;28;20541;-67
2023/12/09 02:49:34;;;;;;;61.50;23.35;;;;;;;;;;5092426;28;20051;-67
2023/12/09 02:52:00;;;;;;;57.33;20.48;;;;;;;;;;5092455;28;20120;-67
2023/12/09 02:54:26;;;;;;;66.15;23.15;;;;;;;;;;5092332;28;20036;-67
2023/12/09 02:56:52;;;;;;;52.65;21.17;;;;;;;;;;5092417;28;20116;-67
2023/12/09 02:59:18;;;;;;;66.85;21.60;;;;;;;;;;5092585;28;20067;-67
2023/12/09 03:01:44;;;;;;;63.80;20.85;;;;;;;;;;5092333;28;20154;-67
2023/12/09 03:04:10;;;;;;;61.28;22.02;;;;;;;;;;5092548;28;20347;-67
2023/12/09 03:06:36;;;;;;;54.42;20.42;;;;;;;;;;5092515;28;20036;-67
2023/12/09 03:09:03;;;;;;;52.40;20.73;;;;;;;;;;5091839;28;20050;-67
2023/12/09 03:11:29;;;;;;;66.82;21.70;;;;;;;;;;5092719;28;20075;-67
2023/12/09 03:13:55;;;;;;;57.38;21.25;;;;;;;;;;5092573;28;20044;-67
2023/12/09 03:16:21;;;;;;;61.67;21.25;;;;;;;;;;5091674;28;20042;-67
2023/12/09 03:18:47;;;;;;;55.67;20.08;;;;;;;;;;5082735;28;20048;-67
2023/12/09 03:21:16;;;;;;;56.00;20.90;;;;;;;;;;5072309;28;20044;-67
2023/12/09 03:23:43;;;;;;;51.45;19.08;;;;;;;;;;5070265;28;20051;-67
2023/12/09 03:26:15;;;;;;;50.08;19.35;;;;;;;;;;5082364;28;20035;-67
2023/12/09 03:28:42;;;;;;;54.50;18.45;;;;;;;;;;5092332;28;20145;-67
2023/12/09 03:31:09;;;;;;;52.40;19.48;;;;;;;;;;5091974;28;20036;-67
2023/12/09 03:33:35;;;;;;;58.00;18.88;;;;;;;;;;5092294;28;20040;-67
2023/12/09 03:36:02;;;;;;;59.33;19.92;;;;;;;;;;5092472;28;20036;-67
2023/12/09 03:38:28;;;;;;;48.58;18.70;;;;;;;;;;5091990;28;20473;-67
2023/12/09 03:40:54;;;;;;;55.13;18.80;;;;;;;;;;5092204;28;20126;-67
2023/12/09 03:43:20;;;;;;;53.72;19.10;;;;;;;;;;5094657;28;20605;-67
2023/12/09 03:45:46;;;;;;;53.28;18.85;;;;;;;;;;5094642;28;20083;-67
2023/12/09 03:48:13;;;;;;;56.78;18.95;;;;;;;;;;5096492;28;20039;-67
2023/12/09 03:50:39;;;;;;;58.25;17.83;;;;;;;;;;5096479;28;20047;-67
2023/12/09 03:53:05;;;;;;;54.45;17.88;;;;;;;;;;5095879;28;20073;-67
2023/12/09 03:55:31;;;;;;;53.20;17.00;;;;;;;;;;5096573;28;20039;-67
2023/12/09 03:57:57;;;;;;;57.20;18.52;;;;;;;;;;5094553;28;20716;-67
2023/12/09 04:00:23;;;;;;;51.13;15.85;;;;;;;;;;5095929;28;20370;-67
2023/12/09 04:02:49;;;;;;;42.03;17.02;;;;;;;;;;5095626;28;20059;-67
2023/12/09 04:05:15;;;;;;;48.95;15.52;;;;;;;;;;5094271;28;20048;-67
2023/12/09 04:07:41;;;;;;;48.08;16.85;;;;;;;;;;5095641;28;20032;-67
2023/12/09 04:10:09;;;;;;;48.67;15.77;;;;;;;;;;5096016;28;20047;-67
2023/12/09 04:12:35;;;;;;;37.17;16.17;;;;;;;;;;5095844;28;20055;-67
2023/12/09 04:15:01;;;;;;;53.35;17.10;;;;;;;;;;5095701;28;20032;-67
2023/12/09 04:17:27;;;;;;;50.40;16.83;;;;;;;;;;5094524;28;20386;-67
2023/12/09 04:19:53;;;;;;;46.92;16.10;;;;;;;;;;5077200;28;20048;-67
2023/12/09 04:22:19;;;;;;;45.45;15.00;;;;;;;;;;5075225;28;20094;-67
2023/12/09 04:24:46;;;;;;;51.70;15.82;;;;;;;;;;5074586;28;20471;-67
2023/12/09 04:27:12;;;;;;;62.20;14.90;;;;;;;;;;5094489;28;20538;-67
2023/12/09 04:29:38;;;;;;;47.45;15.70;;;;;;;;;;5094956;28;20055;-67
2023/12/09 04:32:04;;;;;;;42.80;16.00;;;;;;;;;;5095505;28;20048;-67
2023/12/09 04:34:30;;;;;;;45.22;14.68;;;;;;;;;;5095530;28;20093;-67
2023/12/09 04:36:56;;;;;;;57.33;15.05;;;;;;;;;;5095384;28;20519;-67
2023/12/09 04:39:23;;;;;;;42.72;14.73;;;;;;;;;;5095291;28;20048;-67
2023/12/09 04:41:50;;;;;;;51.83;15.77;;;;;;;;;;5094318;28;20055;-67
2023/12/09 04:44:16;;;;;;;48.60;15.95;;;;;;;;;;5094996;28;20055;-67
2023/12/09 04:46:42;;;;;;;51.97;15.18;;;;;;;;;;5095818;28;20040;-67
2023/12/09 04:49:08;;;;;;;49.05;15.10;;;;;;;;;;5094204;28;20046;-67
2023/12/09 04:51:34;;;;;;;44.97;14.55;;;;;;;;;;5094024;28;20116;-67
2023/12/09 04:54:00;;;;;;;47.22;14.95;;;;;;;;;;5076571;28;20093;-67
2023/12/09 04:56:26;;;;;;;46.78;14.60;;;;;;;;;;5095314;28;20123;-67
2023/12/09 04:58:52;;;;;;;53.88;14.48;;;;;;;;;;5095088;28;20131;-67
2023/12/09 05:01:18;;;;;;;49.35;14.85;;;;;;;;;;5093838;28;20039;-67
2023/12/09 05:03:44;;;;;;;48.67;14.90;;;;;;;;;;5094634;28;20127;-67
2023/12/09 05:06:11;;;;;;;44.60;13.80;;;;;;;;;;5095254;28;20035;-67
2023/12/09 05:08:39;;;;;;;43.10;14.48;;;;;;;;;;5095338;28;20040;-67
2023/12/09 05:11:05;;;;;;;40.38;13.68;;;;;;;;;;5095014;28;20043;-67
2023/12/09 05:13:31;;;;;;;47.35;13.82;;;;;;;;;;5094974;28;20047;-67
2023/12/09 05:15:57;;;;;;;44.63;14.13;;;;;;;;;;5095569;28;20044;-67
2023/12/09 05:18:24;;;;;;;47.70;13.88;;;;;;;;;;5088797;28;20044;-67
2023/12/09 05:20:50;;;;;;;46.95;14.35;;;;;;;;;;5073555;28;20471;-67
2023/12/09 05:23:16;;;;;;;42.47;14.32;;;;;;;;;;5074224;28;20040;-67
2023/12/09 05:25:44;;;;;;;43.88;13.60;;;;;;;;;;5081170;28;20123;-67
2023/12/09 05:28:10;;;;;;;49.90;14.05;;;;;;;;;;5093274;28;20051;-67
2023/12/09 05:30:36;;;;;;;44.92;13.35;;;;;;;;;;5094810;28;20075;-67
2023/12/09 05:33:03;;;;;;;40.25;13.65;;;;;;;;;;5094948;28;20040;-67
2023/12/09 05:35:30;;;;;;;41.28;14.82;;;;;;;;;;5094207;28;20060;-67
2023/12/09 05:37:56;;;;;;;39.83;14.02;;;;;;;;;;5094665;28;20051;-67
2023/12/09 05:40:23;;;;;;;54.10;14.57;;;;;;;;;;5094525;28;20143;-67
2023/12/09 05:42:49;;;;;;;43.10;15.05;;;;;;;;;;5093693;28;20040;-67
2023/12/09 05:45:15;;;;;;;38.90;14.88;;;;;;;;;;5094032;28;20044;-68
2023/12/09 05:47:41;;;;;;;50.10;15.63;;;;;;;;;;5092855;28;20042;-68
2023/12/09 05:50:09;;;;;;;42.42;15.18;;;;;;;;;;5094000;28;20370;-68
2023/12/09 05:52:35;;;;;;;48.53;16.45;;;;;;;;;;5094882;28;20544;-68
2023/12/09 05:55:01;;;;;;;42.13;15.52;;;;;;;;;;5094576;28;20379;-68
2023/12/09 05:57:27;;;;;;;47.10;15.50;;;;;;;;;;5093333;28;20131;-68
2023/12/09 05:59:53;;;;;;;47.90;15.43;;;;;;;;;;5094305;28;20087;-68
2023/12/09 06:02:19;;;;;;;53.50;16.70;;;;;;;;;;5092656;28;20449;-68
2023/12/09 06:04:45;;;;;;;48.80;16.15;;;;;;;;;;5093454;28;20131;-68
2023/12/09 06:07:11;;;;;;;45.03;15.55;;;;;;;;;;5091794;28;20040;-68
2023/12/09 06:09:37;;;;;;;48.10;15.82;;;;;;;;;;5092851;28;20040;-67
2023/12/09 06:12:04;;;;;;;40.13;15.23;;;;;;;;;;5093799;28;20123;-67
2023/12/09 06:14:30;;;;;;;52.75;15.30;;;;;;;;;;5092683;28;20092;-67
2023/12/09 06:16:56;;;;;;;43.47;15.18;;;;;;;;;;5094322;28;20081;-67
2023/12/09 06:19:22;;;;;;;39.80;14.50;;;;;;;;;;5079642;28;20072;-67
2023/12/09 06:21:48;;;;;;;45.65;14.95;;;;;;;;;;5073025;28;20036;-67
2023/12/09 06:24:16;;;;;;;35.38;13.45;;;;;;;;;;5072419;28;20055;-67
2023/12/09 06:26:44;;;;;;;36.45;13.77;;;;;;;;;;5073363;28;20047;-67
2023/12/09 06:29:13;;;;;;;39.92;13.70;;;;;;;;;;5073620;28;20051;-67
2023/12/09 06:31:40;;;;;;;44.38;14.43;;;;;;;;;;5072512;28;20757;-67
2023/12/09 06:34:06;;;;;;;39.15;13.05;;;;;;;;;;5071652;28;20051;-67
2023/12/09 06:36:32;;;;;;;40.28;13.35;;;;;;;;;;5072245;28;20052;-67
2023/12/09 06:38:58;;;;;;;38.97;12.95;;;;;;;;;;5073621;28;20094;-67
2023/12/09 06:41:24;;;;;;;40.67;12.95;;;;;;;;;;5072532;28;20130;-67
2023/12/09 06:43:51;;;;;;;41.63;12.85;;;;;;;;;;5073093;28;20078;-67
2023/12/09 06:46:17;;;;;;;43.58;13.52;;;;;;;;;;5073182;28;20040;-67
2023/12/09 06:48:43;;;;;;;33.45;12.27;;;;;;;;;;5072799;28;20463;-67
2023/12/09 06:51:15;;;;;;;40.05;13.15;;;;;;;;;;5072777;28;20036;-67
2023/12/09 06:53:42;;;;;;;41.25;12.75;;;;;;;;;;5073026;28;20108;-67
2023/12/09 06:56:08;;;;;;;37.53;12.90;;;;;;;;;;5071864;28;20032;-67
2023/12/09 06:58:36;;;;;;;38.20;11.98;;;;;;;;;;5070989;28;20426;-67
2023/12/09 07:01:02;;;;;;;32.17;13.02;;;;;;;;;;5073394;28;20376;-67
2023/12/09 07:03:28;;;;;;;42.97;11.73;;;;;;;;;;5072959;28;20483;-67
2023/12/09 07:05:54;;;;;;;36.47;12.57;;;;;;;;;;5071400;28;20051;-67
2023/12/09 07:08:20;;;;;;;38.75;13.25;;;;;;;;;;5071834;28;20072;-67
2023/12/09 07:10:46;;;;;;;38.80;12.50;;;;;;;;;;5071935;28;20044;-67
2023/12/09 07:13:13;;;;;;;32.97;12.15;;;;;;;;;;5072722;28;20707;-67
2023/12/09 07:15:39;;;;;;;41.85;13.18;;;;;;;;;;5072772;28;20521;-67
2023/12/09 07:18:05;;;;;;;38.55;12.10;;;;;;;;;;5076141;28;20434;-67
2023/12/09 07:20:33;;;;;;;31.58;11.68;;;;;;;;;;5093172;28;20059;-68
2023/12/09 07:22:59;;;;;;;32.60;11.10;;;;;;;;;;5093387;28;20451;-68
2023/12/09 07:25:25;;;;;;;39.83;11.80;;;;;;;;;;5093192;28;20040;-68
2023/12/09 07:27:52;;;;;;;50.83;13.43;;;;;;;;;;5091482;28;20036;-68
2023/12/09 07:30:18;;;;;;;34.40;11.23;;;;;;;;;;5074985;28;20123;-68
2023/12/09 07:32:44;;;;;;;37.88;11.60;;;;;;;;;;5092508;28;20047;-68
2023/12/09 07:35:10;;;;;;;37.88;11.48;;;;;;;;;;5092698;28;20383;-68
2023/12/09 07:37:36;;;;;;;28.67;9.40;;;;;;;;;;5092837;28;20033;-68
2023/12/09 07:40:06;;;;;;;30.38;9.85;;;;;;;;;;5091187;28;20055;-68
2023/12/09 07:42:32;;;;;;;28.40;9.63;;;;;;;;;;5091056;28;20105;-68
2023/12/09 07:44:58;;;;;;;32.78;9.95;;;;;;;;;;5091126;28;20048;-68
2023/12/09 07:47:24;;;;;;;39.08;10.18;;;;;;;;;;5092427;28;20068;-68
2023/12/09 07:49:50;;;;;;;26.20;8.73;;;;;;;;;;5092728;28;20044;-68
2023/12/09 07:52:16;;;;;;;36.28;10.32;;;;;;;;;;5091380;28;20040;-68
2023/12/09 07:54:42;;;;;;;31.55;8.90;;;;;;;;;;5092921;28;20071;-68
2023/12/09 07:57:08;;;;;;;30.00;8.90;;;;;;;;;;5091328;28;20067;-68
2023/12/09 07:59:34;;;;;;;24.05;7.88;;;;;;;;;;5092464;28;20036;-68
2023/12/09 08:02:00;;;;;;;28.55;8.02;;;;;;;;;;5092516;28;20402;-68
2023/12/09 08:04:26;;;;;;;29.23;8.10;;;;;;;;;;5073474;28;20048;-68
2023/12/09 08:06:53;;;;;;;26.40;8.05;;;;;;;;;;5092600;28;20043;-68
2023/12/09 08:09:20;;;;;;;30.40;8.23;;;;;;;;;;5090959;28;20040;-68
2023/12/09 08:11:47;;;;;;;23.42;8.15;;;;;;;;;;5091963;28;20532;-68
2023/12/09 08:14:13;;;;;;;26.92;7.72;;;;;;;;;;5092122;28;20055;-68
2023/12/09 08:16:39;;;;;;;22.35;7.50;;;;;;;;;;5092160;28;20050;-68
2023/12/09 08:19:05;;;;;;;23.48;7.85;;;;;;;;;;5078599;28;20510;-68
2023/12/09 08:21:35;;;;;;;27.83;6.90;;;;;;;;;;5070451;28;20123;-68
2023/12/09 08:24:01;;;;;;;22.73;7.15;;;;;;;;;;5071084;28;20049;-68
2023/12/09 08:26:27;;;;;;;22.35;6.78;;;;;;;;;;5082391;28;20120;-68
2023/12/09 08:28:53;;;;;;;28.45;6.97;;;;;;;;;;5091707;28;20075;-68
2023/12/09 08:31:19;;;;;;;22.77;6.35;;;;;;;;;;5094042;28;20048;-68
2023/12/09 08:33:46;;;;;;;29.85;7.13;;;;;;;;;;5095485;28;20454;-68
2023/12/09 08:36:12;;;;;;;20.35;6.25;;;;;;;;;;5094354;28;20060;-68
2023/12/09 08:38:38;;;;;;;22.95;6.60;;;;;;;;;;5094359;28;20048;-68
2023/12/09 08:41:04;;;;;;;32.05;6.00;;;;;;;;;;5093983;28;20512;-68
2023/12/09 08:43:31;;;;;;;22.85;6.13;;;;;;;;;;5095547;28;20047;-68
2023/12/09 08:45:57;;;;;;;26.77;6.05;;;;;;;;;;5094854;28;20483;-68
2023/12/09 08:48:24;;;;;;;23.25;5.90;;;;;;;;;;5094888;28;20044;-68
2023/12/09 08:50:51;;;;;;;24.33;6.15;;;;;;;;;;5095270;28;20118;-68
2023/12/09 08:53:17;;;;;;;19.67;6.65;;;;;;;;;;5095021;28;20040;-68
2023/12/09 08:55:44;;;;;;;23.13;6.38;;;;;;;;;;5093086;28;20123;-68
2023/12/09 08:58:10;;;;;;;18.00;5.63;;;;;;;;;;5094288;28;20056;-68
2023/12/09 09:00:36;;;;;;;17.77;5.15;;;;;;;;;;5094737;28;20518;-68
2023/12/09 09:03:03;;;;;;;23.30;6.13;;;;;;;;;;5094392;28;20035;-68
2023/12/09 09:05:29;;;;;;;23.70;5.93;;;;;;;;;;5094323;28;20044;-68
2023/12/09 09:07:55;;;;;;;21.00;5.80;;;;;;;;;;5093219;28;20063;-68
2023/12/09 09:10:22;;;;;;;19.65;5.22;;;;;;;;;;5094518;28;20036;-68
2023/12/09 09:12:49;;;;;;;18.85;5.60;;;;;;;;;;5094875;28;20042;-68
2023/12/09 09:15:16;;;;;;;20.35;5.30;;;;;;;;;;5094806;28;20040;-68
2023/12/09 09:17:42;;;;;;;16.65;4.60;;;;;;;;;;5092374;28;20043;-68
2023/12/09 09:20:08;;;;;;;18.20;4.68;;;;;;;;;;5074654;28;20437;-68
2023/12/09 09:22:35;;;;;;;18.58;4.55;;;;;;;;;;5073965;28;20387;-68
2023/12/09 09:25:01;;;;;;;17.77;5.07;;;;;;;;;;5074405;28;20076;-68
2023/12/09 09:27:28;;;;;;;23.38;5.03;;;;;;;;;;5092716;28;20092;-68
2023/12/09 09:29:54;;;;;;;20.30;4.85;;;;;;;;;;5092487;28;20040;-68
2023/12/09 09:32:21;;;;;;;19.60;4.20;;;;;;;;;;5093770;28;20044;-68
2023/12/09 09:34:47;;;;;;;18.48;4.22;;;;;;;;;;5092751;28;20177;-68
2023/12/09 09:37:14;;;;;;;21.08;4.82;;;;;;;;;;5094017;28;20059;-68
2023/12/09 09:39:40;;;;;;;19.17;4.97;;;;;;;;;;5091976;28;20414;-68
2023/12/09 09:42:06;;;;;;;15.95;5.00;;;;;;;;;;5093219;28;20047;-68
2023/12/09 09:44:35;;;;;;;20.17;5.00;;;;;;;;;;5093398;28;20052;-68
2023/12/09 09:47:01;;;;;;;17.45;4.68;;;;;;;;;;5093286;28;20039;-68
2023/12/09 09:49:33;;;;;;;17.23;4.03;;;;;;;;;;5094177;28;20039;-68
2023/12/09 09:52:03;;;;;;;17.02;4.28;;;;;;;;;;5093806;28;20036;-68
2023/12/09 09:54:30;;;;;;;18.67;4.43;;;;;;;;;;5093046;28;20437;-68
2023/12/09 09:56:58;;;;;;;16.27;3.88;;;;;;;;;;5092113;28;20491;-68
2023/12/09 09:59:25;;;;;;;20.85;3.88;;;;;;;;;;5093688;28;20108;-68
2023/12/09 10:01:51;;;;;;;14.38;3.70;;;;;;;;;;5092037;28;20114;-68
2023/12/09 10:04:17;;;;;;;17.17;3.60;;;;;;;;;;5093534;28;20497;-68
2023/12/09 10:06:44;;;;;;;20.45;3.60;;;;;;;;;;5092200;28;20048;-68
2023/12/09 10:09:10;;;;;;;15.90;3.75;;;;;;;;;;5093240;28;20040;-68
2023/12/09 10:11:36;;;;;;;19.38;4.10;;;;;;;;;;5091495;28;20089;-68
2023/12/09 10:14:02;;;;;;;16.50;4.35;;;;;;;;;;5091504;28;20058;-68
2023/12/09 10:16:28;;;;;;;16.92;4.38;;;;;;;;;;5092588;28;20051;-68
2023/12/09 10:18:56;;;;;;;20.70;3.92;;;;;;;;;;5082651;28;20120;-68
2023/12/09 10:21:22;;;;;;;17.35;3.88;;;;;;;;;;5071718;28;20079;-68
2023/12/09 10:23:48;;;;;;;23.40;3.63;;;;;;;;;;5071895;28;20044;-68
2023/12/09 10:26:14;;;;;;;18.10;3.70;;;;;;;;;;5072457;28;20043;-68
2023/12/09 10:28:41;;;;;;;17.17;3.38;;;;;;;;;;5071081;28;20064;-68
2023/12/09 10:31:08;;;;;;;17.50;3.63;;;;;;;;;;5072194;28;20040;-68
2023/12/09 10:33:34;;;;;;;16.95;3.40;;;;;;;;;;5072497;28;20470;-68
2023/12/09 10:36:01;;;;;;;18.45;3.83;;;;;;;;;;5073190;28;20037;-68
2023/12/09 10:38:27;;;;;;;12.65;3.55;;;;;;;;;;5070695;28;20033;-68
2023/12/09 10:40:54;;;;;;;13.52;3.10;;;;;;;;;;5072378;28;20068;-68
2023/12/09 10:43:24;;;;;;;11.73;3.22;;;;;;;;;;5072264;28;20071;-68
2023/12/09 10:45:50;;;;;;;13.50;3.50;;;;;;;;;;5070685;28;20675;-68
2023/12/09 10:48:16;;;;;;;11.20;3.13;;;;;;;;;;5071061;28;20044;-68
2023/12/09 10:50:46;;;;;;;15.43;3.70;;;;;;;;;;5072278;28;20040;-68
2023/12/09 10:53:12;;;;;;;16.10;3.58;;;;;;;;;;5071151;28;20098;-68
2023/12/09 10:55:39;;;;;;;15.18;3.50;;;;;;;;;;5071070;28;20076;-68
2023/12/09 10:58:05;;;;;;;16.25;3.42;;;;;;;;;;5070368;28;20695;-68
2023/12/09 11:00:32;;;;;;;7.60;3.15;;;;;;;;;;5071764;28;20041;-68
2023/12/09 11:02:59;;;;;;;11.95;3.20;;;;;;;;;;5071743;28;20044;-68
2023/12/09 11:05:26;;;;;;;13.38;3.92;;;;;;;;;;5071983;28;20048;-68
2023/12/09 11:07:53;;;;;;;11.93;3.17;;;;;;;;;;5071741;28;20119;-68
2023/12/09 11:10:20;;;;;;;9.55;3.17;;;;;;;;;;5072286;28;20041;-68
2023/12/09 11:12:49;;;;;;;12.57;4.10;;;;;;;;;;5071637;28;20040;-68
2023/12/09 11:15:15;;;;;;;12.07;3.58;;;;;;;;;;5071388;28;20033;-68
2023/12/09 11:17:47;;;;;;;20.33;4.18;;;;;;;;;;5070542;28;20410;-68
2023/12/09 11:20:19;;;;;;;14.40;3.58;;;;;;;;;;5092352;28;20052;-68
2023/12/09 11:22:46;;;;;;;11.13;3.92;;;;;;;;;;5091811;28;20470;-68
2023/12/09 11:25:19;;;;;;;14.68;3.63;;;;;;;;;;5088028;28;20070;-68
2023/12/09 11:27:51;;;;;;;12.40;4.10;;;;;;;;;;5071485;28;20037;-68
2023/12/09 11:30:30;;;;;;;12.13;3.83;;;;;;;;;;5071249;28;20128;-68
2023/12/09 11:32:56;;;;;;;16.95;4.10;;;;;;;;;;5053741;28;20051;-68
2023/12/09 11:35:22;;;;;;;13.40;3.92;;;;;;;;;;5070116;28;20048;-68
2023/12/09 11:37:49;;;;;;;17.23;4.10;;;;;;;;;;5071070;28;20119;-68
2023/12/09 11:40:16;;;;;;;10.52;4.00;;;;;;;;;;5069763;28;20052;-68
2023/12/09 11:42:42;;;;;;;10.90;3.58;;;;;;;;;;5071572;28;20037;-68
2023/12/09 11:45:09;;;;;;;12.13;4.05;;;;;;;;;;5071613;28;20098;-68
2023/12/09 11:47:36;;;;;;;17.08;4.10;;;;;;;;;;5071963;28;20072;-68
2023/12/09 11:50:03;;;;;;;13.30;3.75;;;;;;;;;;5071658;28;20093;-68
2023/12/09 11:52:29;;;;;;;13.13;3.78;;;;;;;;;;5069800;28;20379;-68
2023/12/09 11:54:59;;;;;;;13.35;4.15;;;;;;;;;;5070579;28;20064;-68
2023/12/09 11:57:27;;;;;;;12.38;3.97;;;;;;;;;;5071349;28;20044;-68
2023/12/09 11:59:54;;;;;;;12.57;3.45;;;;;;;;;;5071711;28;20106;-68
2023/12/09 12:02:20;;;;;;;10.07;3.13;;;;;;;;;;5069901;28;20048;-68
2023/12/09 12:04:46;;;;;;;7.30;3.28;;;;;;;;;;5074100;28;20098;-68
2023/12/09 12:07:12;;;;;;;14.30;3.33;;;;;;;;;;5073788;28;20047;-68
2023/12/09 12:09:39;;;;;;;11.43;3.28;;;;;;;;;;5074726;28;20079;-68
2023/12/09 12:12:08;;;;;;;10.80;3.00;;;;;;;;;;5074991;28;20041;-68
2023/12/09 12:14:36;;;;;;;9.05;3.65;;;;;;;;;;5074505;28;20094;-68
2023/12/09 12:17:02;;;;;;;13.80;3.83;;;;;;;;;;5074786;28;20088;-68
2023/12/09 12:19:29;;;;;;;14.05;3.17;;;;;;;;;;5089833;28;20040;-68
2023/12/09 12:21:56;;;;;;;12.23;3.13;;;;;;;;;;5094411;28;20578;-68
2023/12/09 12:24:22;;;;;;;10.70;3.10;;;;;;;;;;5093681;28;20389;-69
2023/12/09 12:26:49;;;;;;;12.98;2.92;;;;;;;;;;5080776;28;20078;-68
2023/12/09 12:29:18;;;;;;;12.77;3.67;;;;;;;;;;5090236;28;20406;-68
2023/12/09 12:31:48;;;;;;;13.05;3.30;;;;;;;;;;5088422;28;20051;-68
2023/12/09 12:34:17;;;;;;;12.27;3.22;;;;;;;;;;5086615;28;20099;-68
2023/12/09 12:36:44;;;;;;;11.73;3.05;;;;;;;;;;5071801;28;20479;-68
2023/12/09 12:39:12;;;;;;;10.88;3.25;;;;;;;;;;5088726;28;20070;-68
2023/12/09 12:41:42;;;;;;;14.18;3.20;;;;;;;;;;5075973;28;20074;-68
2023/12/09 12:44:08;;;;;;;15.13;3.08;;;;;;;;;;5092495;28;20044;-68
2023/12/09 12:46:34;;;;;;;12.35;3.55;;;;;;;;;;5091872;28;20075;-68
2023/12/09 12:49:01;;;;;;;11.32;3.65;;;;;;;;;;5083217;28;20032;-68
2023/12/09 12:51:27;;;;;;;11.40;3.17;;;;;;;;;;5083162;28;20032;-68
2023/12/09 12:53:53;;;;;;;12.55;3.13;;;;;;;;;;5092010;28;20044;-68
2023/12/09 12:56:19;;;;;;;11.95;3.10;;;;;;;;;;5091918;28;20063;-68
2023/12/09 12:58:45;;;;;;;9.77;2.47;;;;;;;;;;5090732;28;20390;-68
2023/12/09 13:01:12;;;;;;;11.93;3.22;;;;;;;;;;5076984;28;20037;-68
2023/12/09 13:03:38;;;;;;;10.90;2.85;;;;;;;;;;5071956;28;20526;-68
2023/12/09 13:06:07;;;;;;;10.90;2.97;;;;;;;;;;5073786;28;20028;-68
2023/12/09 13:08:33;;;;;;;12.45;3.00;;;;;;;;;;5065937;28;20070;-68
2023/12/09 13:10:59;;;;;;;11.35;3.28;;;;;;;;;;5073267;28;20418;-68
2023/12/09 13:13:25;;;;;;;7.68;3.05;;;;;;;;;;5071600;28;20070;-68
2023/12/09 13:15:52;;;;;;;10.23;2.95;;;;;;;;;;5072002;28;20486;-68
2023/12/09 13:18:18;;;;;;;11.02;2.63;;;;;;;;;;5077823;28;20098;-68
2023/12/09 13:20:46;;;;;;;13.63;3.15;;;;;;;;;;5082004;28;20120;-68
2023/12/09 13:23:13;;;;;;;11.95;4.85;;;;;;;;;;5087249;28;20051;-68
2023/12/09 13:25:40;;;;;;;11.00;2.70;;;;;;;;;;5082829;28;20487;-69
2023/12/09 13:28:06;;;;;;;11.07;2.70;;;;;;;;;;5071274;28;20525;-70
2023/12/09 13:30:33;;;;;;;8.77;2.63;;;;;;;;;;5071992;28;20471;-70
2023/12/09 13:33:01;;;;;;;9.40;2.63;;;;;;;;;;5071423;28;20084;-67
2023/12/09 13:35:30;;;;;;;10.07;2.80;;;;;;;;;;5071356;28;20406;-67
2023/12/09 13:37:57;;;;;;;13.20;2.95;;;;;;;;;;5072644;28;20036;-67
2023/12/09 13:40:23;;;;;;;10.45;2.65;;;;;;;;;;5074738;28;20036;-67
2023/12/09 13:42:52;;;;;;;10.98;2.92;;;;;;;;;;5072742;28;20078;-67
2023/12/09 13:45:21;;;;;;;10.02;2.70;;;;;;;;;;5071647;28;20089;-67
2023/12/09 13:47:47;;;;;;;9.90;2.90;;;;;;;;;;5074319;28;20067;-67
2023/12/09 13:50:13;;;;;;;11.18;2.50;;;;;;;;;;5073788;28;20494;-67
2023/12/09 13:52:40;;;;;;;8.48;2.67;;;;;;;;;;5073372;28;20044;-67
2023/12/09 13:55:06;;;;;;;11.00;2.58;;;;;;;;;;5084305;28;20036;-67
2023/12/09 13:57:32;;;;;;;13.98;3.33;;;;;;;;;;5078280;28;20056;-67
2023/12/09 14:00:00;;;;;;;18.50;3.15;;;;;;;;;;5079423;28;20499;-67
2023/12/09 14:02:26;;;;;;;13.52;2.88;;;;;;;;;;5083691;28;20118;-67
2023/12/09 14:04:52;;;;;;;12.95;2.92;;;;;;;;;;5072128;28;20049;-67
2023/12/09 14:07:18;;;;;;;11.32;2.67;;;;;;;;;;5087008;28;20051;-67
2023/12/09 14:09:45;;;;;;;11.55;2.83;;;;;;;;;;5091831;28;20119;-67
2023/12/09 14:12:11;;;;;;;13.15;2.95;;;;;;;;;;5085078;28;20055;-67
2023/12/09 14:14:37;;;;;;;12.10;2.67;;;;;;;;;;5081311;28;20666;-67
2023/12/09 14:17:05;;;;;;;9.70;3.22;;;;;;;;;;5092381;28;20048;-67
2023/12/09 14:19:31;;;;;;;11.40;2.90;;;;;;;;;;5080303;28;20040;-67